PWSweather.com
Personal Weather Stations
Station Observations
KTXDECATUR
Wildwood, Decatur, TX 76234

WildwoodDecatur, TX 76234

Lat: 33.2634, Lon: -97.6651

Elevation: 800

Station Type: Davis Vantage Pro 2

http://weather.wildwoodnaturist.com

Latest ConditionsUpdated 6:00:01 AM CST Sunday, Jan 20, 2019
Currently Today's Max Today's Min Today's Average
Temperature 22.8°F-5.1°C 27.8°F-2.3°C 21.9°F-5.6°C 24.9°F-3.9°C
Dew Point 19.8°F-6.8°C 21.2°F-6.0°C 19.2°F-7.1°C 20.2°F-6.6°C
Winds 2.3 mph NNW3.7 kmh NNW 4.6 mph -7.4 kmh - - 2.1 mph 3.4 kmh
Wind Gusts 2.3 mph3.7 kmh 6.9 mph11.1 kmh - -
Humidity 88% 89% 76% 82%
Pressure 30.38 in1028.8 mb 30.41 in1029.8 mb 30.37 in1028.4 mb -
Hour Temp Dew Point Humidity Winds Wind Gusts Pressure Precip Precip Rate Daily Precip Total
06:00 AM 22.8°F-5.1°C 19.8°F-6.8°C 88% 2.3 mph NNW3.7 kmh NNW 2.3 mph3.7 kmh 30.38 in1028.8 mb - 0.00 in0.0 mm 0.00 in0.0 mm
05:50 AM 22.5°F-5.3°C 19.7°F-6.8°C 89% 1.2 mph NNW1.9 kmh NNW 2.3 mph3.7 kmh 30.38 in1028.8 mb - 0.00 in0.0 mm 0.00 in0.0 mm
05:45 AM 22.4°F-5.3°C 19.6°F-6.9°C 89% Calm Calm 1.2 mph1.9 kmh 30.38 in1028.8 mb - 0.00 in0.0 mm 0.00 in0.0 mm
05:40 AM 21.9°F-5.6°C 19.2°F-7.1°C 89% Calm Calm 1.2 mph1.9 kmh 30.38 in1028.8 mb - 0.00 in0.0 mm 0.00 in0.0 mm
05:30 AM 22.1°F-5.5°C 19.3°F-7.1°C 89% 1.2 mph NNW1.9 kmh NNW 2.3 mph3.7 kmh 30.38 in1028.8 mb - 0.00 in0.0 mm 0.00 in0.0 mm
05:20 AM 22.5°F-5.3°C 19.5°F-6.9°C 88% 2.3 mph NNW3.7 kmh NNW 2.3 mph3.7 kmh 30.38 in1028.8 mb - 0.00 in0.0 mm 0.00 in0.0 mm
05:15 AM 22.7°F-5.2°C 19.4°F-7.0°C 87% Calm Calm 2.3 mph3.7 kmh 30.38 in1028.8 mb - 0.00 in0.0 mm 0.00 in0.0 mm
05:10 AM 23.1°F-4.9°C 19.8°F-6.8°C 87% Calm Calm -- 30.37 in1028.4 mb - 0.00 in0.0 mm 0.00 in0.0 mm
05:00 AM 22.9°F-5.1°C 19.6°F-6.9°C 87% 1.2 mph WNW1.9 kmh WNW 2.3 mph3.7 kmh 30.38 in1028.8 mb - 0.00 in0.0 mm 0.00 in0.0 mm
04:50 AM 22.9°F-5.1°C 19.6°F-6.9°C 87% Calm Calm -- 30.39 in1029.1 mb - 0.00 in0.0 mm 0.00 in0.0 mm
04:45 AM 23.1°F-4.9°C 19.8°F-6.8°C 87% 1.2 mph WNW1.9 kmh WNW 1.2 mph1.9 kmh 30.39 in1029.1 mb - 0.00 in0.0 mm 0.00 in0.0 mm
04:40 AM 23.3°F-4.8°C 19.7°F-6.8°C 86% 1.2 mph WNW1.9 kmh WNW 2.3 mph3.7 kmh 30.40 in1029.5 mb - 0.00 in0.0 mm 0.00 in0.0 mm
04:30 AM 22.9°F-5.1°C 19.6°F-6.9°C 87% 2.3 mph WNW3.7 kmh WNW 3.5 mph5.6 kmh 30.39 in1029.1 mb - 0.00 in0.0 mm 0.00 in0.0 mm
04:20 AM 23.3°F-4.8°C 19.4°F-7.0°C 85% 2.3 mph WNW3.7 kmh WNW 2.3 mph3.7 kmh 30.39 in1029.1 mb - 0.00 in0.0 mm 0.00 in0.0 mm
04:15 AM 23.6°F-4.7°C 19.8°F-6.8°C 85% 3.5 mph WNW5.6 kmh WNW 3.5 mph5.6 kmh 30.39 in1029.1 mb - 0.00 in0.0 mm 0.00 in0.0 mm
04:10 AM 23.4°F-4.8°C 19.6°F-6.9°C 85% 2.3 mph NW3.7 kmh NW 2.3 mph3.7 kmh 30.39 in1029.1 mb - 0.00 in0.0 mm 0.00 in0.0 mm
04:00 AM 23.4°F-4.8°C 19.3°F-7.1°C 84% 1.2 mph N1.9 kmh N 2.3 mph3.7 kmh 30.39 in1029.1 mb - 0.00 in0.0 mm 0.00 in0.0 mm
03:50 AM 24.2°F-4.3°C 19.8°F-6.8°C 83% Calm Calm -- 30.39 in1029.1 mb - 0.00 in0.0 mm 0.00 in0.0 mm
03:30 AM 24.9°F-3.9°C 20.2°F-6.6°C 82% 2.3 mph NNE3.7 kmh NNE 3.5 mph5.6 kmh 30.38 in1028.8 mb - 0.00 in0.0 mm 0.00 in0.0 mm
03:20 AM 24.7°F-4.1°C 20.0°F-6.7°C 82% 1.2 mph N1.9 kmh N 2.3 mph3.7 kmh 30.38 in1028.8 mb - 0.00 in0.0 mm 0.00 in0.0 mm
03:15 AM 24.8°F-4.0°C 20.1°F-6.6°C 82% 1.2 mph N1.9 kmh N 1.2 mph1.9 kmh 30.39 in1029.1 mb - 0.00 in0.0 mm 0.00 in0.0 mm
03:10 AM 24.8°F-4.0°C 20.1°F-6.6°C 82% 3.5 mph N5.6 kmh N 4.6 mph7.4 kmh 30.39 in1029.1 mb - 0.00 in0.0 mm 0.00 in0.0 mm
03:00 AM 24.9°F-3.9°C 20.2°F-6.6°C 82% 2.3 mph N3.7 kmh N 3.5 mph5.6 kmh 30.40 in1029.5 mb - 0.00 in0.0 mm 0.00 in0.0 mm
02:50 AM 25.0°F-3.9°C 20.3°F-6.5°C 82% 3.5 mph N5.6 kmh N 4.6 mph7.4 kmh 30.39 in1029.1 mb - 0.00 in0.0 mm 0.00 in0.0 mm
02:45 AM 25.0°F-3.9°C 20.3°F-6.5°C 82% 3.5 mph N5.6 kmh N 4.6 mph7.4 kmh 30.39 in1029.1 mb - 0.00 in0.0 mm 0.00 in0.0 mm
02:40 AM 25.1°F-3.8°C 20.3°F-6.5°C 82% 2.3 mph NW3.7 kmh NW 3.5 mph5.6 kmh 30.39 in1029.1 mb - 0.00 in0.0 mm 0.00 in0.0 mm
02:30 AM 24.9°F-3.9°C 19.9°F-6.7°C 81% 3.5 mph NW5.6 kmh NW 3.5 mph5.6 kmh 30.41 in1029.8 mb - 0.00 in0.0 mm 0.00 in0.0 mm
02:20 AM 25.5°F-3.6°C 20.4°F-6.4°C 81% 2.3 mph NW3.7 kmh NW 3.5 mph5.6 kmh 30.41 in1029.8 mb - 0.00 in0.0 mm 0.00 in0.0 mm
02:15 AM 25.3°F-3.7°C 20.3°F-6.5°C 81% 1.2 mph NW1.9 kmh NW 2.3 mph3.7 kmh 30.41 in1029.8 mb - 0.00 in0.0 mm 0.00 in0.0 mm
02:10 AM 25.5°F-3.6°C 20.2°F-6.6°C 80% 2.3 mph NW3.7 kmh NW 3.5 mph5.6 kmh 30.40 in1029.5 mb - 0.00 in0.0 mm 0.00 in0.0 mm
02:00 AM 25.8°F-3.4°C 20.5°F-6.4°C 80% 2.3 mph NNW3.7 kmh NNW 3.5 mph5.6 kmh 30.39 in1029.1 mb - 0.00 in0.0 mm 0.00 in0.0 mm
01:50 AM 26.0°F-3.3°C 20.4°F-6.4°C 79% 2.3 mph NNW3.7 kmh NNW 3.5 mph5.6 kmh 30.39 in1029.1 mb - 0.00 in0.0 mm 0.00 in0.0 mm
01:45 AM 26.2°F-3.2°C 20.6°F-6.3°C 79% 2.3 mph N3.7 kmh N 3.5 mph5.6 kmh 30.39 in1029.1 mb - 0.00 in0.0 mm 0.00 in0.0 mm
01:40 AM 26.4°F-3.1°C 20.8°F-6.2°C 79% 2.3 mph N3.7 kmh N 3.5 mph5.6 kmh 30.39 in1029.1 mb - 0.00 in0.0 mm 0.00 in0.0 mm
01:30 AM 26.5°F-3.1°C 20.9°F-6.2°C 79% 2.3 mph N3.7 kmh N 3.5 mph5.6 kmh 30.39 in1029.1 mb - 0.00 in0.0 mm 0.00 in0.0 mm
01:20 AM 26.4°F-3.1°C 20.8°F-6.2°C 79% 3.5 mph N5.6 kmh N 6.9 mph11.1 kmh 30.39 in1029.1 mb - 0.00 in0.0 mm 0.00 in0.0 mm
01:15 AM 26.5°F-3.1°C 20.9°F-6.2°C 79% 3.5 mph N5.6 kmh N 5.8 mph9.3 kmh 30.39 in1029.1 mb - 0.00 in0.0 mm 0.00 in0.0 mm
01:10 AM 26.6°F-3.0°C 21.0°F-6.1°C 79% 2.3 mph NNW3.7 kmh NNW 3.5 mph5.6 kmh 30.39 in1029.1 mb - 0.00 in0.0 mm 0.00 in0.0 mm
01:00 AM 26.8°F-2.9°C 21.2°F-6.0°C 79% 3.5 mph N5.6 kmh N 3.5 mph5.6 kmh 30.40 in1029.5 mb - 0.00 in0.0 mm 0.00 in0.0 mm
12:50 AM 27.0°F-2.8°C 21.1°F-6.1°C 78% 2.3 mph N3.7 kmh N 3.5 mph5.6 kmh 30.40 in1029.5 mb - 0.00 in0.0 mm 0.00 in0.0 mm
12:45 AM 27.0°F-2.8°C 21.1°F-6.1°C 78% 2.3 mph NNE3.7 kmh NNE 3.5 mph5.6 kmh 30.40 in1029.5 mb - 0.00 in0.0 mm 0.00 in0.0 mm
12:40 AM 27.0°F-2.8°C 21.1°F-6.1°C 78% 2.3 mph NNE3.7 kmh NNE 3.5 mph5.6 kmh 30.40 in1029.5 mb - 0.00 in0.0 mm 0.00 in0.0 mm
12:30 AM 27.0°F-2.8°C 21.1°F-6.1°C 78% 2.3 mph NNW3.7 kmh NNW 3.5 mph5.6 kmh 30.41 in1029.8 mb - 0.00 in0.0 mm 0.00 in0.0 mm
12:20 AM 27.2°F-2.7°C 20.9°F-6.2°C 77% 3.5 mph NNW5.6 kmh NNW 4.6 mph7.4 kmh 30.41 in1029.8 mb - 0.00 in0.0 mm 0.00 in0.0 mm
12:15 AM 27.3°F-2.6°C 21.0°F-6.1°C 77% 2.3 mph NW3.7 kmh NW 3.5 mph5.6 kmh 30.41 in1029.8 mb - 0.00 in0.0 mm 0.00 in0.0 mm
12:10 AM 27.3°F-2.6°C 21.1°F-6.1°C 77% 3.5 mph NNW5.6 kmh NNW 3.5 mph5.6 kmh 30.41 in1029.8 mb - 0.00 in0.0 mm 0.00 in0.0 mm
12:00 AM 27.8°F-2.3°C 21.2°F-6.0°C 76% 4.6 mph NNW7.4 kmh NNW 6.9 mph11.1 kmh 30.41 in1029.8 mb - 0.00 in0.0 mm 0.00 in0.0 mm